sensor_id;sensor_type;location;lat;lon;timestamp;P1;durP1;ratioP1;P2;durP2;ratioP2
55835;SDS011;66908;50.988;4.780;2023-02-22T00:01:23;71.50;;;24.50;;
55835;SDS011;66908;50.988;4.780;2023-02-22T00:04:11;85.10;;;24.30;;
55835;SDS011;66908;50.988;4.780;2023-02-22T00:06:38;70.88;;;23.52;;
55835;SDS011;66908;50.988;4.780;2023-02-22T00:09:04;88.72;;;24.80;;
55835;SDS011;66908;50.988;4.780;2023-02-22T00:11:33;59.97;;;22.90;;
55835;SDS011;66908;50.988;4.780;2023-02-22T00:13:59;98.97;;;25.80;;
55835;SDS011;66908;50.988;4.780;2023-02-22T00:16:26;74.82;;;23.23;;
55835;SDS011;66908;50.988;4.780;2023-02-22T00:18:53;87.82;;;23.13;;
55835;SDS011;66908;50.988;4.780;2023-02-22T00:21:19;92.57;;;24.02;;
55835;SDS011;66908;50.988;4.780;2023-02-22T00:23:46;76.82;;;23.23;;
55835;SDS011;66908;50.988;4.780;2023-02-22T00:26:16;101.30;;;26.98;;
55835;SDS011;66908;50.988;4.780;2023-02-22T00:28:47;147.25;;;28.88;;
55835;SDS011;66908;50.988;4.780;2023-02-22T00:31:18;94.65;;;24.27;;
55835;SDS011;66908;50.988;4.780;2023-02-22T00:33:45;108.30;;;25.23;;
55835;SDS011;66908;50.988;4.780;2023-02-22T00:36:11;125.28;;;26.33;;
55835;SDS011;66908;50.988;4.780;2023-02-22T00:38:38;138.95;;;24.65;;
55835;SDS011;66908;50.988;4.780;2023-02-22T00:41:05;143.38;;;27.15;;
55835;SDS011;66908;50.988;4.780;2023-02-22T00:43:33;169.38;;;31.08;;
55835;SDS011;66908;50.988;4.780;2023-02-22T00:45:59;108.68;;;25.65;;
55835;SDS011;66908;50.988;4.780;2023-02-22T00:48:25;79.13;;;22.83;;
55835;SDS011;66908;50.988;4.780;2023-02-22T00:50:51;166.27;;;29.45;;
55835;SDS011;66908;50.988;4.780;2023-02-22T00:53:19;171.02;;;29.42;;
55835;SDS011;66908;50.988;4.780;2023-02-22T00:55:46;196.77;;;29.33;;
55835;SDS011;66908;50.988;4.780;2023-02-22T00:58:12;151.27;;;26.23;;
55835;SDS011;66908;50.988;4.780;2023-02-22T01:00:39;160.88;;;29.27;;
55835;SDS011;66908;50.988;4.780;2023-02-22T01:05:33;217.98;;;29.33;;
55835;SDS011;66908;50.988;4.780;2023-02-22T01:08:00;272.92;;;33.38;;
55835;SDS011;66908;50.988;4.780;2023-02-22T01:10:27;195.30;;;30.10;;
55835;SDS011;66908;50.988;4.780;2023-02-22T01:12:55;217.98;;;36.00;;
55835;SDS011;66908;50.988;4.780;2023-02-22T01:15:22;198.38;;;31.98;;
55835;SDS011;66908;50.988;4.780;2023-02-22T01:17:51;170.18;;;30.27;;
55835;SDS011;66908;50.988;4.780;2023-02-22T01:20:18;204.23;;;31.27;;
55835;SDS011;66908;50.988;4.780;2023-02-22T01:22:47;219.45;;;30.67;;
55835;SDS011;66908;50.988;4.780;2023-02-22T01:25:15;110.00;;;25.88;;
55835;SDS011;66908;50.988;4.780;2023-02-22T01:27:43;180.43;;;28.33;;
55835;SDS011;66908;50.988;4.780;2023-02-22T01:30:10;204.05;;;30.27;;
55835;SDS011;66908;50.988;4.780;2023-02-22T01:32:38;137.85;;;26.50;;
55835;SDS011;66908;50.988;4.780;2023-02-22T01:35:07;184.85;;;30.48;;
55835;SDS011;66908;50.988;4.780;2023-02-22T01:37:34;131.52;;;27.10;;
55835;SDS011;66908;50.988;4.780;2023-02-22T01:40:01;269.17;;;35.45;;
55835;SDS011;66908;50.988;4.780;2023-02-22T01:42:31;249.32;;;35.65;;
55835;SDS011;66908;50.988;4.780;2023-02-22T01:48:15;175.50;;;30.85;;
55835;SDS011;66908;50.988;4.780;2023-02-22T01:53:46;201.43;;;33.47;;
55835;SDS011;66908;50.988;4.780;2023-02-22T01:56:17;220.38;;;28.33;;
55835;SDS011;66908;50.988;4.780;2023-02-22T01:58:49;148.70;;;27.67;;
55835;SDS011;66908;50.988;4.780;2023-02-22T02:01:22;146.43;;;25.48;;
55835;SDS011;66908;50.988;4.780;2023-02-22T02:03:49;136.85;;;23.67;;
55835;SDS011;66908;50.988;4.780;2023-02-22T02:06:16;132.27;;;24.25;;
55835;SDS011;66908;50.988;4.780;2023-02-22T02:11:37;93.95;;;21.83;;
55835;SDS011;66908;50.988;4.780;2023-02-22T02:14:06;193.60;;;27.38;;
55835;SDS011;66908;50.988;4.780;2023-02-22T02:19:05;104.03;;;23.10;;
55835;SDS011;66908;50.988;4.780;2023-02-22T02:22:17;147.75;;;24.00;;
55835;SDS011;66908;50.988;4.780;2023-02-22T02:41:50;126.13;;;22.70;;
55835;SDS011;66908;50.988;4.780;2023-02-22T02:44:19;94.70;;;20.35;;
55835;SDS011;66908;50.988;4.780;2023-02-22T02:47:05;131.13;;;23.92;;
55835;SDS011;66908;50.988;4.780;2023-02-22T02:49:44;99.00;;;21.38;;
55835;SDS011;66908;50.988;4.780;2023-02-22T02:52:30;84.90;;;21.50;;
55835;SDS011;66908;50.988;4.780;2023-02-22T02:54:58;110.47;;;21.08;;
55835;SDS011;66908;50.988;4.780;2023-02-22T02:57:27;87.57;;;21.42;;
55835;SDS011;66908;50.988;4.780;2023-02-22T02:59:53;81.65;;;19.95;;
55835;SDS011;66908;50.988;4.780;2023-02-22T03:08:06;67.57;;;18.05;;
55835;SDS011;66908;50.988;4.780;2023-02-22T03:13:30;65.95;;;18.70;;
55835;SDS011;66908;50.988;4.780;2023-02-22T03:18:55;41.75;;;16.95;;
55835;SDS011;66908;50.988;4.780;2023-02-22T03:21:41;44.47;;;16.17;;
55835;SDS011;66908;50.988;4.780;2023-02-22T03:24:32;37.28;;;16.63;;
55835;SDS011;66908;50.988;4.780;2023-02-22T03:27:05;52.65;;;16.25;;
55835;SDS011;66908;50.988;4.780;2023-02-22T03:29:45;64.72;;;17.92;;
55835;SDS011;66908;50.988;4.780;2023-02-22T03:32:16;42.53;;;15.90;;
55835;SDS011;66908;50.988;4.780;2023-02-22T03:34:48;53.67;;;17.42;;
55835;SDS011;66908;50.988;4.780;2023-02-22T03:37:43;59.60;;;18.10;;
55835;SDS011;66908;50.988;4.780;2023-02-22T03:40:17;39.25;;;17.15;;
55835;SDS011;66908;50.988;4.780;2023-02-22T03:42:51;46.67;;;16.10;;
55835;SDS011;66908;50.988;4.780;2023-02-22T03:45:24;54.13;;;16.60;;
55835;SDS011;66908;50.988;4.780;2023-02-22T03:47:56;41.85;;;15.60;;
55835;SDS011;66908;50.988;4.780;2023-02-22T03:50:28;47.90;;;17.20;;
55835;SDS011;66908;50.988;4.780;2023-02-22T03:52:59;46.08;;;17.25;;
55835;SDS011;66908;50.988;4.780;2023-02-22T03:55:26;36.88;;;16.67;;
55835;SDS011;66908;50.988;4.780;2023-02-22T03:58:03;63.90;;;17.77;;
55835;SDS011;66908;50.988;4.780;2023-02-22T04:00:33;43.03;;;16.13;;
55835;SDS011;66908;50.988;4.780;2023-02-22T04:03:02;34.60;;;16.27;;
55835;SDS011;66908;50.988;4.780;2023-02-22T04:05:28;34.78;;;15.25;;
55835;SDS011;66908;50.988;4.780;2023-02-22T04:07:55;41.60;;;15.07;;
55835;SDS011;66908;50.988;4.780;2023-02-22T04:10:21;26.70;;;14.48;;
55835;SDS011;66908;50.988;4.780;2023-02-22T04:12:48;39.72;;;15.75;;
55835;SDS011;66908;50.988;4.780;2023-02-22T04:15:16;34.53;;;16.10;;
55835;SDS011;66908;50.988;4.780;2023-02-22T04:17:44;33.95;;;15.38;;
55835;SDS011;66908;50.988;4.780;2023-02-22T04:20:11;43.35;;;15.82;;
55835;SDS011;66908;50.988;4.780;2023-02-22T04:22:38;51.57;;;15.73;;
55835;SDS011;66908;50.988;4.780;2023-02-22T04:25:05;65.35;;;17.30;;
55835;SDS011;66908;50.988;4.780;2023-02-22T04:27:31;64.97;;;16.83;;
55835;SDS011;66908;50.988;4.780;2023-02-22T04:29:58;64.45;;;17.08;;
55835;SDS011;66908;50.988;4.780;2023-02-22T04:32:24;82.68;;;17.83;;
55835;SDS011;66908;50.988;4.780;2023-02-22T04:34:50;37.85;;;14.23;;
55835;SDS011;66908;50.988;4.780;2023-02-22T04:37:16;29.08;;;14.40;;
55835;SDS011;66908;50.988;4.780;2023-02-22T04:39:42;30.30;;;13.77;;
55835;SDS011;66908;50.988;4.780;2023-02-22T04:42:08;22.88;;;13.23;;
55835;SDS011;66908;50.988;4.780;2023-02-22T04:44:34;21.33;;;12.15;;
55835;SDS011;66908;50.988;4.780;2023-02-22T04:47:00;25.10;;;12.43;;
55835;SDS011;66908;50.988;4.780;2023-02-22T04:49:26;26.42;;;13.85;;
55835;SDS011;66908;50.988;4.780;2023-02-22T04:51:51;21.02;;;12.82;;
55835;SDS011;66908;50.988;4.780;2023-02-22T04:54:17;20.25;;;12.95;;
55835;SDS011;66908;50.988;4.780;2023-02-22T04:56:43;29.23;;;13.23;;
55835;SDS011;66908;50.988;4.780;2023-02-22T04:59:09;22.33;;;12.70;;
55835;SDS011;66908;50.988;4.780;2023-02-22T05:01:36;23.88;;;12.93;;
55835;SDS011;66908;50.988;4.780;2023-02-22T05:04:03;29.95;;;13.02;;
55835;SDS011;66908;50.988;4.780;2023-02-22T05:06:30;25.35;;;12.65;;
55835;SDS011;66908;50.988;4.780;2023-02-22T05:08:55;30.85;;;13.73;;
55835;SDS011;66908;50.988;4.780;2023-02-22T05:11:21;24.05;;;13.05;;
55835;SDS011;66908;50.988;4.780;2023-02-22T05:13:48;23.88;;;13.13;;
55835;SDS011;66908;50.988;4.780;2023-02-22T05:16:14;20.98;;;12.43;;
55835;SDS011;66908;50.988;4.780;2023-02-22T05:18:40;21.60;;;12.70;;
55835;SDS011;66908;50.988;4.780;2023-02-22T05:21:06;21.55;;;11.63;;
55835;SDS011;66908;50.988;4.780;2023-02-22T05:23:32;22.77;;;12.25;;
55835;SDS011;66908;50.988;4.780;2023-02-22T05:25:58;22.75;;;12.43;;
55835;SDS011;66908;50.988;4.780;2023-02-22T05:28:25;21.05;;;10.88;;
55835;SDS011;66908;50.988;4.780;2023-02-22T05:30:51;19.85;;;11.55;;
55835;SDS011;66908;50.988;4.780;2023-02-22T05:33:17;18.55;;;12.20;;
55835;SDS011;66908;50.988;4.780;2023-02-22T05:35:43;19.58;;;11.15;;
55835;SDS011;66908;50.988;4.780;2023-02-22T05:38:11;22.08;;;11.80;;
55835;SDS011;66908;50.988;4.780;2023-02-22T05:40:39;20.30;;;11.70;;
55835;SDS011;66908;50.988;4.780;2023-02-22T05:43:05;19.70;;;11.43;;
55835;SDS011;66908;50.988;4.780;2023-02-22T05:45:31;20.58;;;11.45;;
55835;SDS011;66908;50.988;4.780;2023-02-22T05:47:58;18.02;;;11.07;;
55835;SDS011;66908;50.988;4.780;2023-02-22T05:50:24;16.80;;;10.85;;
55835;SDS011;66908;50.988;4.780;2023-02-22T05:52:51;23.50;;;12.15;;
55835;SDS011;66908;50.988;4.780;2023-02-22T05:55:18;18.45;;;11.43;;
55835;SDS011;66908;50.988;4.780;2023-02-22T05:57:46;22.45;;;11.52;;
55835;SDS011;66908;50.988;4.780;2023-02-22T06:00:15;17.05;;;10.70;;
55835;SDS011;66908;50.988;4.780;2023-02-22T06:02:43;18.00;;;10.93;;
55835;SDS011;66908;50.988;4.780;2023-02-22T06:05:09;18.50;;;11.10;;
55835;SDS011;66908;50.988;4.780;2023-02-22T06:07:35;19.50;;;11.18;;
55835;SDS011;66908;50.988;4.780;2023-02-22T06:10:01;17.58;;;11.27;;
55835;SDS011;66908;50.988;4.780;2023-02-22T06:12:27;15.68;;;10.27;;
55835;SDS011;66908;50.988;4.780;2023-02-22T06:14:53;22.02;;;12.02;;
55835;SDS011;66908;50.988;4.780;2023-02-22T06:17:19;23.08;;;14.20;;
55835;SDS011;66908;50.988;4.780;2023-02-22T06:19:44;18.95;;;11.15;;
55835;SDS011;66908;50.988;4.780;2023-02-22T06:22:14;21.15;;;11.60;;
55835;SDS011;66908;50.988;4.780;2023-02-22T06:24:42;18.45;;;11.32;;
55835;SDS011;66908;50.988;4.780;2023-02-22T06:27:07;17.98;;;10.40;;
55835;SDS011;66908;50.988;4.780;2023-02-22T06:29:33;16.73;;;10.90;;
55835;SDS011;66908;50.988;4.780;2023-02-22T06:31:59;16.67;;;10.70;;
55835;SDS011;66908;50.988;4.780;2023-02-22T06:34:25;19.88;;;10.55;;
55835;SDS011;66908;50.988;4.780;2023-02-22T06:36:51;17.65;;;11.82;;
55835;SDS011;66908;50.988;4.780;2023-02-22T06:39:17;19.13;;;11.50;;
55835;SDS011;66908;50.988;4.780;2023-02-22T06:41:43;18.65;;;11.10;;
55835;SDS011;66908;50.988;4.780;2023-02-22T06:44:10;20.00;;;10.55;;
55835;SDS011;66908;50.988;4.780;2023-02-22T06:46:37;16.33;;;10.27;;
55835;SDS011;66908;50.988;4.780;2023-02-22T06:49:03;16.42;;;10.27;;
55835;SDS011;66908;50.988;4.780;2023-02-22T06:51:30;17.58;;;10.63;;
55835;SDS011;66908;50.988;4.780;2023-02-22T06:54:01;15.68;;;10.20;;
55835;SDS011;66908;50.988;4.780;2023-02-22T06:56:28;17.70;;;10.98;;
55835;SDS011;66908;50.988;4.780;2023-02-22T06:58:54;16.88;;;10.52;;
55835;SDS011;66908;50.988;4.780;2023-02-22T07:01:20;18.83;;;11.40;;
55835;SDS011;66908;50.988;4.780;2023-02-22T07:03:47;22.17;;;10.60;;
55835;SDS011;66908;50.988;4.780;2023-02-22T07:08:39;17.55;;;10.35;;
55835;SDS011;66908;50.988;4.780;2023-02-22T07:11:05;16.70;;;10.48;;
55835;SDS011;66908;50.988;4.780;2023-02-22T07:13:31;13.95;;;9.27;;
55835;SDS011;66908;50.988;4.780;2023-02-22T07:15:57;13.98;;;9.68;;
55835;SDS011;66908;50.988;4.780;2023-02-22T07:18:23;25.05;;;14.05;;
55835;SDS011;66908;50.988;4.780;2023-02-22T07:20:49;29.45;;;15.55;;
55835;SDS011;66908;50.988;4.780;2023-02-22T07:23:16;13.90;;;9.80;;
55835;SDS011;66908;50.988;4.780;2023-02-22T07:25:42;16.73;;;9.63;;
55835;SDS011;66908;50.988;4.780;2023-02-22T07:28:08;14.35;;;9.68;;
55835;SDS011;66908;50.988;4.780;2023-02-22T07:30:35;13.25;;;9.40;;
55835;SDS011;66908;50.988;4.780;2023-02-22T07:33:05;13.50;;;8.75;;
55835;SDS011;66908;50.988;4.780;2023-02-22T07:35:48;12.82;;;9.48;;
55835;SDS011;66908;50.988;4.780;2023-02-22T07:38:15;15.27;;;10.02;;
55835;SDS011;66908;50.988;4.780;2023-02-22T07:40:43;13.32;;;9.75;;
55835;SDS011;66908;50.988;4.780;2023-02-22T07:43:14;15.82;;;9.30;;
55835;SDS011;66908;50.988;4.780;2023-02-22T07:45:42;14.30;;;10.75;;
55835;SDS011;66908;50.988;4.780;2023-02-22T07:48:08;13.68;;;9.65;;
55835;SDS011;66908;50.988;4.780;2023-02-22T07:50:34;17.90;;;10.40;;
55835;SDS011;66908;50.988;4.780;2023-02-22T07:53:01;14.65;;;10.13;;
55835;SDS011;66908;50.988;4.780;2023-02-22T07:55:30;19.00;;;11.55;;
55835;SDS011;66908;50.988;4.780;2023-02-22T07:57:58;20.80;;;11.93;;
55835;SDS011;66908;50.988;4.780;2023-02-22T08:03:05;17.98;;;10.10;;
55835;SDS011;66908;50.988;4.780;2023-02-22T08:05:33;14.70;;;9.40;;
55835;SDS011;66908;50.988;4.780;2023-02-22T08:10:27;12.60;;;9.15;;
55835;SDS011;66908;50.988;4.780;2023-02-22T08:12:54;14.15;;;9.77;;
55835;SDS011;66908;50.988;4.780;2023-02-22T08:15:22;16.23;;;9.82;;
55835;SDS011;66908;50.988;4.780;2023-02-22T08:17:50;14.75;;;9.50;;
55835;SDS011;66908;50.988;4.780;2023-02-22T08:20:17;13.35;;;8.98;;
55835;SDS011;66908;50.988;4.780;2023-02-22T08:22:43;15.70;;;10.00;;
55835;SDS011;66908;50.988;4.780;2023-02-22T08:25:09;16.40;;;9.40;;
55835;SDS011;66908;50.988;4.780;2023-02-22T08:27:36;17.85;;;10.15;;
55835;SDS011;66908;50.988;4.780;2023-02-22T08:30:02;14.00;;;10.07;;
55835;SDS011;66908;50.988;4.780;2023-02-22T08:32:29;18.40;;;10.07;;
55835;SDS011;66908;50.988;4.780;2023-02-22T08:34:54;14.25;;;10.10;;
55835;SDS011;66908;50.988;4.780;2023-02-22T08:37:20;13.80;;;9.57;;
55835;SDS011;66908;50.988;4.780;2023-02-22T08:39:46;17.42;;;10.50;;
55835;SDS011;66908;50.988;4.780;2023-02-22T08:42:11;16.38;;;10.48;;
55835;SDS011;66908;50.988;4.780;2023-02-22T08:44:37;14.88;;;10.48;;
55835;SDS011;66908;50.988;4.780;2023-02-22T08:47:04;13.18;;;9.48;;
55835;SDS011;66908;50.988;4.780;2023-02-22T08:49:31;15.32;;;10.00;;
55835;SDS011;66908;50.988;4.780;2023-02-22T08:51:57;19.25;;;12.57;;
55835;SDS011;66908;50.988;4.780;2023-02-22T08:54:22;17.52;;;10.98;;
55835;SDS011;66908;50.988;4.780;2023-02-22T08:56:48;15.40;;;10.60;;
55835;SDS011;66908;50.988;4.780;2023-02-22T08:59:14;16.08;;;9.63;;
55835;SDS011;66908;50.988;4.780;2023-02-22T09:01:40;18.42;;;10.43;;
55835;SDS011;66908;50.988;4.780;2023-02-22T09:04:06;15.95;;;9.57;;
55835;SDS011;66908;50.988;4.780;2023-02-22T09:06:31;17.13;;;10.43;;
55835;SDS011;66908;50.988;4.780;2023-02-22T09:08:57;18.35;;;10.38;;
55835;SDS011;66908;50.988;4.780;2023-02-22T09:11:23;14.50;;;9.60;;
55835;SDS011;66908;50.988;4.780;2023-02-22T09:13:48;16.92;;;10.23;;
55835;SDS011;66908;50.988;4.780;2023-02-22T09:16:14;14.63;;;10.18;;
55835;SDS011;66908;50.988;4.780;2023-02-22T09:18:40;21.00;;;10.85;;
55835;SDS011;66908;50.988;4.780;2023-02-22T09:21:06;13.80;;;10.75;;
55835;SDS011;66908;50.988;4.780;2023-02-22T09:23:32;16.65;;;10.18;;
55835;SDS011;66908;50.988;4.780;2023-02-22T09:25:58;14.90;;;10.00;;
55835;SDS011;66908;50.988;4.780;2023-02-22T09:28:25;15.95;;;10.32;;
55835;SDS011;66908;50.988;4.780;2023-02-22T09:30:51;22.55;;;12.70;;
55835;SDS011;66908;50.988;4.780;2023-02-22T09:33:17;15.98;;;9.93;;
55835;SDS011;66908;50.988;4.780;2023-02-22T09:38:13;16.45;;;10.25;;
55835;SDS011;66908;50.988;4.780;2023-02-22T09:44:09;16.65;;;10.65;;
55835;SDS011;66908;50.988;4.780;2023-02-22T09:46:40;17.98;;;10.10;;
55835;SDS011;66908;50.988;4.780;2023-02-22T09:54:32;17.80;;;11.55;;
55835;SDS011;66908;50.988;4.780;2023-02-22T09:56:59;13.80;;;10.48;;
55835;SDS011;66908;50.988;4.780;2023-02-22T09:59:30;17.50;;;11.23;;
55835;SDS011;66908;50.988;4.780;2023-02-22T10:02:03;18.08;;;10.60;;
55835;SDS011;66908;50.988;4.780;2023-02-22T10:04:46;18.48;;;11.75;;
55835;SDS011;66908;50.988;4.780;2023-02-22T10:07:50;21.15;;;11.77;;
55835;SDS011;66908;50.988;4.780;2023-02-22T10:10:18;19.13;;;11.32;;
55835;SDS011;66908;50.988;4.780;2023-02-22T10:12:50;38.03;;;20.95;;
55835;SDS011;66908;50.988;4.780;2023-02-22T10:15:41;17.80;;;11.52;;
55835;SDS011;66908;50.988;4.780;2023-02-22T10:23:32;19.77;;;12.50;;
55835;SDS011;66908;50.988;4.780;2023-02-22T10:28:38;19.73;;;12.48;;
55835;SDS011;66908;50.988;4.780;2023-02-22T10:31:25;17.73;;;12.88;;
55835;SDS011;66908;50.988;4.780;2023-02-22T10:33:59;16.77;;;11.45;;
55835;SDS011;66908;50.988;4.780;2023-02-22T10:36:26;14.93;;;11.07;;
55835;SDS011;66908;50.988;4.780;2023-02-22T10:39:02;19.20;;;11.63;;
55835;SDS011;66908;50.988;4.780;2023-02-22T10:42:08;19.50;;;12.25;;
55835;SDS011;66908;50.988;4.780;2023-02-22T10:44:34;17.92;;;11.70;;
55835;SDS011;66908;50.988;4.780;2023-02-22T10:49:52;19.52;;;12.10;;
55835;SDS011;66908;50.988;4.780;2023-02-22T10:52:31;18.40;;;11.98;;
55835;SDS011;66908;50.988;4.780;2023-02-22T10:54:58;19.73;;;11.98;;
55835;SDS011;66908;50.988;4.780;2023-02-22T10:57:32;21.92;;;13.85;;
55835;SDS011;66908;50.988;4.780;2023-02-22T11:02:57;24.58;;;14.07;;
55835;SDS011;66908;50.988;4.780;2023-02-22T11:05:34;20.33;;;13.30;;
55835;SDS011;66908;50.988;4.780;2023-02-22T11:10:56;20.60;;;12.88;;
55835;SDS011;66908;50.988;4.780;2023-02-22T11:13:29;15.90;;;11.57;;
55835;SDS011;66908;50.988;4.780;2023-02-22T11:15:58;18.17;;;12.13;;
55835;SDS011;66908;50.988;4.780;2023-02-22T11:18:28;17.90;;;12.88;;
55835;SDS011;66908;50.988;4.780;2023-02-22T11:21:02;20.08;;;12.85;;
55835;SDS011;66908;50.988;4.780;2023-02-22T11:23:34;19.25;;;12.88;;
55835;SDS011;66908;50.988;4.780;2023-02-22T11:26:11;20.08;;;12.88;;
55835;SDS011;66908;50.988;4.780;2023-02-22T11:28:42;21.58;;;12.88;;
55835;SDS011;66908;50.988;4.780;2023-02-22T11:31:20;18.05;;;12.02;;
55835;SDS011;66908;50.988;4.780;2023-02-22T11:33:50;21.33;;;13.02;;
55835;SDS011;66908;50.988;4.780;2023-02-22T11:36:38;23.77;;;13.00;;
55835;SDS011;66908;50.988;4.780;2023-02-22T11:39:08;18.67;;;12.68;;
55835;SDS011;66908;50.988;4.780;2023-02-22T11:41:49;21.40;;;13.65;;
55835;SDS011;66908;50.988;4.780;2023-02-22T11:46:49;20.55;;;13.07;;
55835;SDS011;66908;50.988;4.780;2023-02-22T11:49:20;21.88;;;13.93;;
55835;SDS011;66908;50.988;4.780;2023-02-22T11:54:37;19.63;;;13.80;;
55835;SDS011;66908;50.988;4.780;2023-02-22T12:10:56;20.52;;;13.93;;
55835;SDS011;66908;50.988;4.780;2023-02-22T12:16:20;28.48;;;16.98;;
55835;SDS011;66908;50.988;4.780;2023-02-22T12:19:07;28.60;;;20.00;;
55835;SDS011;66908;50.988;4.780;2023-02-22T12:21:43;29.40;;;20.30;;
55835;SDS011;66908;50.988;4.780;2023-02-22T12:24:14;34.30;;;21.35;;
55835;SDS011;66908;50.988;4.780;2023-02-22T12:26:47;36.13;;;21.80;;
55835;SDS011;66908;50.988;4.780;2023-02-22T12:31:56;36.20;;;21.95;;
55835;SDS011;66908;50.988;4.780;2023-02-22T12:34:33;33.13;;;21.67;;
55835;SDS011;66908;50.988;4.780;2023-02-22T12:39:51;32.20;;;21.42;;
55835;SDS011;66908;50.988;4.780;2023-02-22T12:45:15;32.10;;;21.52;;
55835;SDS011;66908;50.988;4.780;2023-02-22T12:48:04;35.45;;;22.10;;
55835;SDS011;66908;50.988;4.780;2023-02-22T12:50:46;44.38;;;26.02;;
55835;SDS011;66908;50.988;4.780;2023-02-22T12:53:34;35.72;;;22.15;;
55835;SDS011;66908;50.988;4.780;2023-02-22T12:58:56;33.72;;;22.77;;
55835;SDS011;66908;50.988;4.780;2023-02-22T13:01:39;31.50;;;20.23;;
55835;SDS011;66908;50.988;4.780;2023-02-22T13:04:08;34.90;;;22.48;;
55835;SDS011;66908;50.988;4.780;2023-02-22T13:14:34;33.00;;;22.35;;
55835;SDS011;66908;50.988;4.780;2023-02-22T13:19:54;33.80;;;22.30;;
55835;SDS011;66908;50.988;4.780;2023-02-22T13:22:39;38.78;;;22.30;;
55835;SDS011;66908;50.988;4.780;2023-02-22T13:25:24;41.33;;;23.02;;
55835;SDS011;66908;50.988;4.780;2023-02-22T13:28:38;33.80;;;23.30;;
55835;SDS011;66908;50.988;4.780;2023-02-22T13:43:13;38.08;;;25.20;;
55835;SDS011;66908;50.988;4.780;2023-02-22T13:54:15;35.83;;;24.50;;
55835;SDS011;66908;50.988;4.780;2023-02-22T13:56:49;35.65;;;24.48;;
55835;SDS011;66908;50.988;4.780;2023-02-22T13:59:20;37.92;;;25.75;;
55835;SDS011;66908;50.988;4.780;2023-02-22T14:01:53;45.60;;;25.42;;
55835;SDS011;66908;50.988;4.780;2023-02-22T14:06:52;42.80;;;27.23;;
55835;SDS011;66908;50.988;4.780;2023-02-22T14:09:42;43.80;;;27.33;;
55835;SDS011;66908;50.988;4.780;2023-02-22T14:17:48;44.13;;;26.73;;
55835;SDS011;66908;50.988;4.780;2023-02-22T14:22:57;38.63;;;26.00;;
55835;SDS011;66908;50.988;4.780;2023-02-22T14:25:44;37.10;;;26.35;;
55835;SDS011;66908;50.988;4.780;2023-02-22T14:31:18;41.35;;;26.67;;
55835;SDS011;66908;50.988;4.780;2023-02-22T14:33:50;40.83;;;25.95;;
55835;SDS011;66908;50.988;4.780;2023-02-22T14:36:33;43.90;;;27.50;;
55835;SDS011;66908;50.988;4.780;2023-02-22T14:39:32;41.50;;;27.48;;
55835;SDS011;66908;50.988;4.780;2023-02-22T14:42:06;41.00;;;27.13;;
55835;SDS011;66908;50.988;4.780;2023-02-22T14:47:16;41.10;;;25.48;;
55835;SDS011;66908;50.988;4.780;2023-02-22T14:49:46;42.40;;;28.05;;
55835;SDS011;66908;50.988;4.780;2023-02-22T14:52:22;43.72;;;27.45;;
55835;SDS011;66908;50.988;4.780;2023-02-22T15:00:39;44.40;;;27.45;;
55835;SDS011;66908;50.988;4.780;2023-02-22T15:03:26;43.75;;;27.63;;
55835;SDS011;66908;50.988;4.780;2023-02-22T15:06:16;50.15;;;29.48;;
55835;SDS011;66908;50.988;4.780;2023-02-22T15:08:46;45.60;;;28.48;;
55835;SDS011;66908;50.988;4.780;2023-02-22T15:11:23;44.13;;;28.23;;
55835;SDS011;66908;50.988;4.780;2023-02-22T15:13:55;44.97;;;27.75;;
55835;SDS011;66908;50.988;4.780;2023-02-22T15:16:22;43.58;;;27.27;;
55835;SDS011;66908;50.988;4.780;2023-02-22T15:18:52;45.47;;;27.48;;
55835;SDS011;66908;50.988;4.780;2023-02-22T15:21:24;42.25;;;28.50;;
55835;SDS011;66908;50.988;4.780;2023-02-22T15:24:03;45.28;;;28.70;;
55835;SDS011;66908;50.988;4.780;2023-02-22T15:26:35;49.10;;;28.35;;
55835;SDS011;66908;50.988;4.780;2023-02-22T15:29:12;48.77;;;29.53;;
55835;SDS011;66908;50.988;4.780;2023-02-22T15:31:40;49.10;;;29.80;;
55835;SDS011;66908;50.988;4.780;2023-02-22T15:36:39;48.45;;;30.00;;
55835;SDS011;66908;50.988;4.780;2023-02-22T15:42:00;53.30;;;30.38;;
55835;SDS011;66908;50.988;4.780;2023-02-22T15:44:32;52.20;;;30.70;;
55835;SDS011;66908;50.988;4.780;2023-02-22T15:47:03;47.63;;;26.77;;
55835;SDS011;66908;50.988;4.780;2023-02-22T15:49:30;54.08;;;30.60;;
55835;SDS011;66908;50.988;4.780;2023-02-22T15:52:08;57.85;;;30.27;;
55835;SDS011;66908;50.988;4.780;2023-02-22T15:54:46;57.45;;;30.83;;
55835;SDS011;66908;50.988;4.780;2023-02-22T15:57:18;55.72;;;31.40;;
55835;SDS011;66908;50.988;4.780;2023-02-22T15:59:51;54.03;;;30.40;;
55835;SDS011;66908;50.988;4.780;2023-02-22T16:07:31;53.33;;;30.42;;
55835;SDS011;66908;50.988;4.780;2023-02-22T16:10:00;51.03;;;30.52;;
55835;SDS011;66908;50.988;4.780;2023-02-22T16:12:33;51.97;;;29.95;;
55835;SDS011;66908;50.988;4.780;2023-02-22T16:15:00;56.55;;;32.03;;
55835;SDS011;66908;50.988;4.780;2023-02-22T16:17:29;55.03;;;31.77;;
55835;SDS011;66908;50.988;4.780;2023-02-22T16:22:42;52.08;;;30.40;;
55835;SDS011;66908;50.988;4.780;2023-02-22T16:30:33;61.58;;;32.63;;
55835;SDS011;66908;50.988;4.780;2023-02-22T16:33:05;58.13;;;31.55;;
55835;SDS011;66908;50.988;4.780;2023-02-22T16:35:37;54.65;;;30.58;;
55835;SDS011;66908;50.988;4.780;2023-02-22T16:38:05;55.65;;;28.95;;
55835;SDS011;66908;50.988;4.780;2023-02-22T16:40:41;57.28;;;31.42;;
55835;SDS011;66908;50.988;4.780;2023-02-22T16:43:24;55.85;;;30.75;;
55835;SDS011;66908;50.988;4.780;2023-02-22T16:45:53;61.08;;;31.05;;
55835;SDS011;66908;50.988;4.780;2023-02-22T16:48:23;68.60;;;34.03;;
55835;SDS011;66908;50.988;4.780;2023-02-22T16:50:50;58.03;;;31.65;;
55835;SDS011;66908;50.988;4.780;2023-02-22T16:55:44;57.00;;;30.20;;
55835;SDS011;66908;50.988;4.780;2023-02-22T16:58:15;55.53;;;30.55;;
55835;SDS011;66908;50.988;4.780;2023-02-22T17:00:43;57.95;;;30.52;;
55835;SDS011;66908;50.988;4.780;2023-02-22T17:03:09;58.53;;;31.60;;
55835;SDS011;66908;50.988;4.780;2023-02-22T17:05:39;58.33;;;30.30;;
55835;SDS011;66908;50.988;4.780;2023-02-22T17:08:05;56.17;;;30.73;;
55835;SDS011;66908;50.988;4.780;2023-02-22T17:10:31;58.33;;;30.75;;
55835;SDS011;66908;50.988;4.780;2023-02-22T17:12:58;62.10;;;31.42;;
55835;SDS011;66908;50.988;4.780;2023-02-22T17:15:26;61.63;;;29.92;;
55835;SDS011;66908;50.988;4.780;2023-02-22T17:17:54;59.42;;;29.60;;
55835;SDS011;66908;50.988;4.780;2023-02-22T17:20:21;52.95;;;28.52;;
55835;SDS011;66908;50.988;4.780;2023-02-22T17:23:03;59.60;;;30.65;;
55835;SDS011;66908;50.988;4.780;2023-02-22T17:25:35;56.10;;;28.80;;
55835;SDS011;66908;50.988;4.780;2023-02-22T17:28:03;66.50;;;33.85;;
55835;SDS011;66908;50.988;4.780;2023-02-22T17:30:30;53.22;;;28.85;;
55835;SDS011;66908;50.988;4.780;2023-02-22T17:32:58;51.85;;;28.38;;
55835;SDS011;66908;50.988;4.780;2023-02-22T17:35:28;55.85;;;28.27;;
55835;SDS011;66908;50.988;4.780;2023-02-22T17:37:57;52.88;;;29.13;;
55835;SDS011;66908;50.988;4.780;2023-02-22T17:42:50;55.03;;;29.70;;
55835;SDS011;66908;50.988;4.780;2023-02-22T17:45:19;57.08;;;29.27;;
55835;SDS011;66908;50.988;4.780;2023-02-22T17:47:47;58.25;;;31.30;;